sensor_id;sensor_type;location;lat;lon;timestamp;P1;durP1;ratioP1;P2;durP2;ratioP2
21868;SDS011;11099;41.564;23.296;2023-09-30T00:00:16;10.07;;;4.30;;
21868;SDS011;11099;41.564;23.296;2023-09-30T00:02:42;6.60;;;4.70;;
21868;SDS011;11099;41.564;23.296;2023-09-30T00:05:08;12.07;;;4.10;;
21868;SDS011;11099;41.564;23.296;2023-09-30T00:07:35;8.55;;;4.03;;
21868;SDS011;11099;41.564;23.296;2023-09-30T00:10:01;7.47;;;4.45;;
21868;SDS011;11099;41.564;23.296;2023-09-30T00:12:28;13.43;;;4.75;;
21868;SDS011;11099;41.564;23.296;2023-09-30T00:14:54;8.32;;;4.05;;
21868;SDS011;11099;41.564;23.296;2023-09-30T00:17:20;9.55;;;4.07;;
21868;SDS011;11099;41.564;23.296;2023-09-30T00:19:46;9.15;;;4.18;;
21868;SDS011;11099;41.564;23.296;2023-09-30T00:22:11;9.90;;;4.65;;
21868;SDS011;11099;41.564;23.296;2023-09-30T00:24:37;7.25;;;4.15;;
21868;SDS011;11099;41.564;23.296;2023-09-30T00:27:03;14.70;;;4.65;;
21868;SDS011;11099;41.564;23.296;2023-09-30T00:29:29;7.15;;;4.43;;
21868;SDS011;11099;41.564;23.296;2023-09-30T00:31:54;9.35;;;4.32;;
21868;SDS011;11099;41.564;23.296;2023-09-30T00:34:20;10.32;;;4.07;;
21868;SDS011;11099;41.564;23.296;2023-09-30T00:36:45;12.18;;;5.20;;
21868;SDS011;11099;41.564;23.296;2023-09-30T00:39:12;10.68;;;4.22;;
21868;SDS011;11099;41.564;23.296;2023-09-30T00:41:38;13.80;;;4.38;;
21868;SDS011;11099;41.564;23.296;2023-09-30T00:44:04;5.57;;;4.00;;
21868;SDS011;11099;41.564;23.296;2023-09-30T00:46:35;8.40;;;4.57;;
21868;SDS011;11099;41.564;23.296;2023-09-30T00:49:02;14.13;;;4.10;;
21868;SDS011;11099;41.564;23.296;2023-09-30T00:51:28;9.43;;;4.28;;
21868;SDS011;11099;41.564;23.296;2023-09-30T00:53:58;6.82;;;4.63;;
21868;SDS011;11099;41.564;23.296;2023-09-30T00:56:25;16.60;;;4.45;;
21868;SDS011;11099;41.564;23.296;2023-09-30T00:58:53;11.47;;;4.60;;
21868;SDS011;11099;41.564;23.296;2023-09-30T01:01:19;10.60;;;4.68;;
21868;SDS011;11099;41.564;23.296;2023-09-30T01:03:46;9.85;;;4.13;;
21868;SDS011;11099;41.564;23.296;2023-09-30T01:06:12;7.90;;;4.10;;
21868;SDS011;11099;41.564;23.296;2023-09-30T01:08:38;12.02;;;4.47;;
21868;SDS011;11099;41.564;23.296;2023-09-30T01:11:04;10.18;;;4.07;;
21868;SDS011;11099;41.564;23.296;2023-09-30T01:13:34;13.07;;;4.40;;
21868;SDS011;11099;41.564;23.296;2023-09-30T01:16:07;8.02;;;4.30;;
21868;SDS011;11099;41.564;23.296;2023-09-30T01:18:37;11.68;;;4.25;;
21868;SDS011;11099;41.564;23.296;2023-09-30T01:21:04;10.00;;;4.07;;
21868;SDS011;11099;41.564;23.296;2023-09-30T01:23:32;9.85;;;4.20;;
21868;SDS011;11099;41.564;23.296;2023-09-30T01:26:05;8.65;;;4.55;;
21868;SDS011;11099;41.564;23.296;2023-09-30T01:28:34;10.68;;;4.57;;
21868;SDS011;11099;41.564;23.296;2023-09-30T01:30:59;14.95;;;4.57;;
21868;SDS011;11099;41.564;23.296;2023-09-30T01:33:25;8.48;;;4.00;;
21868;SDS011;11099;41.564;23.296;2023-09-30T01:35:51;6.35;;;4.07;;
21868;SDS011;11099;41.564;23.296;2023-09-30T01:38:17;14.65;;;4.97;;
21868;SDS011;11099;41.564;23.296;2023-09-30T01:40:43;5.78;;;4.18;;
21868;SDS011;11099;41.564;23.296;2023-09-30T01:43:08;9.40;;;4.45;;
21868;SDS011;11099;41.564;23.296;2023-09-30T01:45:35;10.30;;;4.50;;
21868;SDS011;11099;41.564;23.296;2023-09-30T01:48:01;11.40;;;4.25;;
21868;SDS011;11099;41.564;23.296;2023-09-30T01:50:27;12.43;;;4.38;;
21868;SDS011;11099;41.564;23.296;2023-09-30T01:52:53;11.55;;;4.30;;
21868;SDS011;11099;41.564;23.296;2023-09-30T01:55:19;9.43;;;4.38;;
21868;SDS011;11099;41.564;23.296;2023-09-30T01:57:44;5.47;;;4.03;;
21868;SDS011;11099;41.564;23.296;2023-09-30T02:00:10;10.88;;;4.45;;
21868;SDS011;11099;41.564;23.296;2023-09-30T02:02:37;11.68;;;4.80;;
21868;SDS011;11099;41.564;23.296;2023-09-30T02:05:03;13.20;;;5.03;;
21868;SDS011;11099;41.564;23.296;2023-09-30T02:07:29;11.95;;;5.13;;
21868;SDS011;11099;41.564;23.296;2023-09-30T02:09:55;12.95;;;4.55;;
21868;SDS011;11099;41.564;23.296;2023-09-30T02:12:21;9.98;;;4.60;;
21868;SDS011;11099;41.564;23.296;2023-09-30T02:14:46;10.77;;;4.95;;
21868;SDS011;11099;41.564;23.296;2023-09-30T02:17:12;8.48;;;4.40;;
21868;SDS011;11099;41.564;23.296;2023-09-30T02:19:38;8.02;;;4.75;;
21868;SDS011;11099;41.564;23.296;2023-09-30T02:22:05;7.60;;;4.88;;
21868;SDS011;11099;41.564;23.296;2023-09-30T02:24:34;14.55;;;4.13;;
21868;SDS011;11099;41.564;23.296;2023-09-30T02:26:59;11.85;;;4.57;;
21868;SDS011;11099;41.564;23.296;2023-09-30T02:29:25;15.48;;;4.97;;
21868;SDS011;11099;41.564;23.296;2023-09-30T02:31:51;12.27;;;4.50;;
21868;SDS011;11099;41.564;23.296;2023-09-30T02:34:16;12.18;;;4.50;;
21868;SDS011;11099;41.564;23.296;2023-09-30T02:36:42;14.40;;;4.63;;
21868;SDS011;11099;41.564;23.296;2023-09-30T02:39:09;9.75;;;4.88;;
21868;SDS011;11099;41.564;23.296;2023-09-30T02:41:35;8.40;;;4.63;;
21868;SDS011;11099;41.564;23.296;2023-09-30T02:44:03;8.82;;;4.15;;
21868;SDS011;11099;41.564;23.296;2023-09-30T02:46:29;9.73;;;5.60;;
21868;SDS011;11099;41.564;23.296;2023-09-30T02:48:54;10.93;;;5.28;;
21868;SDS011;11099;41.564;23.296;2023-09-30T02:51:20;9.80;;;4.53;;
21868;SDS011;11099;41.564;23.296;2023-09-30T02:53:45;6.95;;;4.45;;
21868;SDS011;11099;41.564;23.296;2023-09-30T02:56:13;6.93;;;4.50;;
21868;SDS011;11099;41.564;23.296;2023-09-30T02:58:39;10.82;;;4.72;;
21868;SDS011;11099;41.564;23.296;2023-09-30T03:01:05;10.85;;;4.93;;
21868;SDS011;11099;41.564;23.296;2023-09-30T03:06:00;11.40;;;4.68;;
21868;SDS011;11099;41.564;23.296;2023-09-30T03:08:26;11.18;;;4.93;;
21868;SDS011;11099;41.564;23.296;2023-09-30T03:10:52;8.35;;;4.35;;
21868;SDS011;11099;41.564;23.296;2023-09-30T03:13:18;8.50;;;4.70;;
21868;SDS011;11099;41.564;23.296;2023-09-30T03:15:46;7.18;;;4.75;;
21868;SDS011;11099;41.564;23.296;2023-09-30T03:18:15;14.50;;;4.60;;
21868;SDS011;11099;41.564;23.296;2023-09-30T03:20:42;7.65;;;4.50;;
21868;SDS011;11099;41.564;23.296;2023-09-30T03:23:08;9.15;;;4.43;;
21868;SDS011;11099;41.564;23.296;2023-09-30T03:25:35;9.30;;;5.00;;
21868;SDS011;11099;41.564;23.296;2023-09-30T03:28:00;11.25;;;5.25;;
21868;SDS011;11099;41.564;23.296;2023-09-30T03:30:26;7.43;;;4.55;;
21868;SDS011;11099;41.564;23.296;2023-09-30T03:32:52;9.23;;;4.82;;
21868;SDS011;11099;41.564;23.296;2023-09-30T03:35:17;8.00;;;4.82;;
21868;SDS011;11099;41.564;23.296;2023-09-30T03:37:43;6.55;;;5.10;;
21868;SDS011;11099;41.564;23.296;2023-09-30T03:40:10;6.88;;;4.45;;
21868;SDS011;11099;41.564;23.296;2023-09-30T03:42:43;13.10;;;4.30;;
21868;SDS011;11099;41.564;23.296;2023-09-30T03:45:09;9.65;;;4.32;;
21868;SDS011;11099;41.564;23.296;2023-09-30T03:47:36;7.32;;;4.32;;
21868;SDS011;11099;41.564;23.296;2023-09-30T03:50:03;9.80;;;4.70;;
21868;SDS011;11099;41.564;23.296;2023-09-30T03:52:30;10.18;;;4.65;;
21868;SDS011;11099;41.564;23.296;2023-09-30T03:54:58;8.20;;;4.30;;
21868;SDS011;11099;41.564;23.296;2023-09-30T03:57:24;12.25;;;4.70;;
21868;SDS011;11099;41.564;23.296;2023-09-30T03:59:50;5.97;;;4.28;;
21868;SDS011;11099;41.564;23.296;2023-09-30T04:02:17;8.85;;;4.80;;
21868;SDS011;11099;41.564;23.296;2023-09-30T04:04:44;6.25;;;4.93;;
21868;SDS011;11099;41.564;23.296;2023-09-30T04:07:11;10.27;;;4.50;;
21868;SDS011;11099;41.564;23.296;2023-09-30T04:09:37;9.40;;;4.78;;
21868;SDS011;11099;41.564;23.296;2023-09-30T04:12:03;8.23;;;4.88;;
21868;SDS011;11099;41.564;23.296;2023-09-30T04:14:29;12.07;;;4.38;;
21868;SDS011;11099;41.564;23.296;2023-09-30T04:16:54;9.77;;;4.50;;
21868;SDS011;11099;41.564;23.296;2023-09-30T04:19:20;7.72;;;4.68;;
21868;SDS011;11099;41.564;23.296;2023-09-30T04:21:46;8.18;;;5.00;;
21868;SDS011;11099;41.564;23.296;2023-09-30T04:24:11;13.40;;;4.78;;
21868;SDS011;11099;41.564;23.296;2023-09-30T04:26:37;11.55;;;5.18;;
21868;SDS011;11099;41.564;23.296;2023-09-30T04:29:03;8.18;;;4.82;;
21868;SDS011;11099;41.564;23.296;2023-09-30T04:31:29;6.95;;;4.75;;
21868;SDS011;11099;41.564;23.296;2023-09-30T04:33:55;12.48;;;4.80;;
21868;SDS011;11099;41.564;23.296;2023-09-30T04:36:23;11.85;;;5.05;;
21868;SDS011;11099;41.564;23.296;2023-09-30T04:38:48;5.55;;;4.70;;
21868;SDS011;11099;41.564;23.296;2023-09-30T04:41:14;12.15;;;4.82;;
21868;SDS011;11099;41.564;23.296;2023-09-30T04:43:41;11.82;;;4.72;;
21868;SDS011;11099;41.564;23.296;2023-09-30T04:46:08;10.77;;;5.10;;
21868;SDS011;11099;41.564;23.296;2023-09-30T04:48:34;12.43;;;4.93;;
21868;SDS011;11099;41.564;23.296;2023-09-30T04:51:00;7.35;;;4.45;;
21868;SDS011;11099;41.564;23.296;2023-09-30T04:53:30;6.72;;;4.75;;
21868;SDS011;11099;41.564;23.296;2023-09-30T04:55:55;11.00;;;4.43;;
21868;SDS011;11099;41.564;23.296;2023-09-30T04:58:21;17.02;;;5.38;;
21868;SDS011;11099;41.564;23.296;2023-09-30T05:00:49;12.40;;;4.78;;
21868;SDS011;11099;41.564;23.296;2023-09-30T05:03:14;15.15;;;4.78;;
21868;SDS011;11099;41.564;23.296;2023-09-30T05:05:40;13.68;;;4.45;;
21868;SDS011;11099;41.564;23.296;2023-09-30T05:08:06;9.57;;;4.55;;
21868;SDS011;11099;41.564;23.296;2023-09-30T05:10:32;14.45;;;4.70;;
21868;SDS011;11099;41.564;23.296;2023-09-30T05:12:58;9.80;;;4.70;;
21868;SDS011;11099;41.564;23.296;2023-09-30T05:15:24;12.00;;;5.07;;
21868;SDS011;11099;41.564;23.296;2023-09-30T05:17:50;7.70;;;4.80;;
21868;SDS011;11099;41.564;23.296;2023-09-30T05:20:16;10.35;;;4.90;;
21868;SDS011;11099;41.564;23.296;2023-09-30T05:22:45;10.27;;;5.00;;
21868;SDS011;11099;41.564;23.296;2023-09-30T05:25:11;12.48;;;5.05;;
21868;SDS011;11099;41.564;23.296;2023-09-30T05:27:39;9.37;;;5.30;;
21868;SDS011;11099;41.564;23.296;2023-09-30T05:30:05;10.07;;;4.65;;
21868;SDS011;11099;41.564;23.296;2023-09-30T05:32:31;15.02;;;5.07;;
21868;SDS011;11099;41.564;23.296;2023-09-30T05:34:58;10.55;;;4.95;;
21868;SDS011;11099;41.564;23.296;2023-09-30T05:37:23;12.25;;;4.55;;
21868;SDS011;11099;41.564;23.296;2023-09-30T05:39:50;9.20;;;4.85;;
21868;SDS011;11099;41.564;23.296;2023-09-30T05:42:16;15.43;;;5.28;;
21868;SDS011;11099;41.564;23.296;2023-09-30T05:44:43;7.78;;;4.72;;
21868;SDS011;11099;41.564;23.296;2023-09-30T05:47:09;9.32;;;4.90;;
21868;SDS011;11099;41.564;23.296;2023-09-30T05:49:35;10.93;;;5.47;;
21868;SDS011;11099;41.564;23.296;2023-09-30T05:52:02;13.30;;;4.80;;
21868;SDS011;11099;41.564;23.296;2023-09-30T05:54:28;7.25;;;5.00;;
21868;SDS011;11099;41.564;23.296;2023-09-30T05:56:55;8.98;;;5.25;;
21868;SDS011;11099;41.564;23.296;2023-09-30T05:59:21;7.88;;;5.22;;
21868;SDS011;11099;41.564;23.296;2023-09-30T06:01:47;13.35;;;5.28;;
21868;SDS011;11099;41.564;23.296;2023-09-30T06:04:12;18.08;;;4.88;;
21868;SDS011;11099;41.564;23.296;2023-09-30T06:06:38;16.25;;;4.80;;
21868;SDS011;11099;41.564;23.296;2023-09-30T06:09:04;10.68;;;5.00;;
21868;SDS011;11099;41.564;23.296;2023-09-30T06:11:33;8.93;;;5.07;;
21868;SDS011;11099;41.564;23.296;2023-09-30T06:13:59;10.25;;;5.32;;
21868;SDS011;11099;41.564;23.296;2023-09-30T06:16:26;9.93;;;4.93;;
21868;SDS011;11099;41.564;23.296;2023-09-30T06:18:54;8.95;;;5.50;;
21868;SDS011;11099;41.564;23.296;2023-09-30T06:21:24;9.95;;;4.97;;
21868;SDS011;11099;41.564;23.296;2023-09-30T06:23:54;7.82;;;5.00;;
21868;SDS011;11099;41.564;23.296;2023-09-30T06:26:20;12.48;;;5.38;;
21868;SDS011;11099;41.564;23.296;2023-09-30T06:28:53;22.55;;;4.88;;
21868;SDS011;11099;41.564;23.296;2023-09-30T06:31:21;10.70;;;4.88;;
21868;SDS011;11099;41.564;23.296;2023-09-30T06:33:46;14.57;;;5.10;;
21868;SDS011;11099;41.564;23.296;2023-09-30T06:36:12;9.75;;;4.70;;
21868;SDS011;11099;41.564;23.296;2023-09-30T06:38:41;13.25;;;4.90;;
21868;SDS011;11099;41.564;23.296;2023-09-30T06:41:09;7.07;;;5.25;;
21868;SDS011;11099;41.564;23.296;2023-09-30T06:43:34;11.32;;;5.07;;
21868;SDS011;11099;41.564;23.296;2023-09-30T06:46:06;10.48;;;4.97;;
21868;SDS011;11099;41.564;23.296;2023-09-30T06:48:34;8.90;;;4.65;;
21868;SDS011;11099;41.564;23.296;2023-09-30T06:51:00;10.95;;;4.75;;
21868;SDS011;11099;41.564;23.296;2023-09-30T06:53:29;19.98;;;4.85;;
21868;SDS011;11099;41.564;23.296;2023-09-30T06:55:55;11.55;;;4.85;;
21868;SDS011;11099;41.564;23.296;2023-09-30T06:58:21;12.55;;;4.43;;
21868;SDS011;11099;41.564;23.296;2023-09-30T07:00:49;10.77;;;4.68;;
21868;SDS011;11099;41.564;23.296;2023-09-30T07:05:45;7.78;;;4.57;;
21868;SDS011;11099;41.564;23.296;2023-09-30T07:08:15;11.02;;;5.20;;
21868;SDS011;11099;41.564;23.296;2023-09-30T07:10:44;11.27;;;4.97;;
21868;SDS011;11099;41.564;23.296;2023-09-30T07:13:17;12.68;;;5.47;;
21868;SDS011;11099;41.564;23.296;2023-09-30T07:15:43;13.57;;;5.90;;
21868;SDS011;11099;41.564;23.296;2023-09-30T07:18:09;17.63;;;5.72;;
21868;SDS011;11099;41.564;23.296;2023-09-30T07:20:37;12.77;;;4.80;;
21868;SDS011;11099;41.564;23.296;2023-09-30T07:23:06;10.68;;;5.13;;
21868;SDS011;11099;41.564;23.296;2023-09-30T07:25:33;13.90;;;5.22;;
21868;SDS011;11099;41.564;23.296;2023-09-30T07:28:05;12.90;;;5.68;;
21868;SDS011;11099;41.564;23.296;2023-09-30T07:30:54;13.10;;;5.18;;
21868;SDS011;11099;41.564;23.296;2023-09-30T07:33:26;15.45;;;5.10;;
21868;SDS011;11099;41.564;23.296;2023-09-30T07:35:51;10.52;;;4.78;;
21868;SDS011;11099;41.564;23.296;2023-09-30T07:38:17;15.18;;;4.93;;
21868;SDS011;11099;41.564;23.296;2023-09-30T07:40:49;13.13;;;5.32;;
21868;SDS011;11099;41.564;23.296;2023-09-30T07:43:24;14.43;;;5.55;;
21868;SDS011;11099;41.564;23.296;2023-09-30T07:45:49;19.65;;;5.40;;
21868;SDS011;11099;41.564;23.296;2023-09-30T07:48:15;9.68;;;5.88;;
21868;SDS011;11099;41.564;23.296;2023-09-30T07:50:41;13.65;;;5.35;;
21868;SDS011;11099;41.564;23.296;2023-09-30T07:53:09;10.32;;;4.97;;
21868;SDS011;11099;41.564;23.296;2023-09-30T07:55:49;15.55;;;6.35;;
21868;SDS011;11099;41.564;23.296;2023-09-30T07:58:18;13.57;;;5.68;;
21868;SDS011;11099;41.564;23.296;2023-09-30T08:00:51;10.48;;;5.55;;
21868;SDS011;11099;41.564;23.296;2023-09-30T08:03:16;8.75;;;6.05;;
21868;SDS011;11099;41.564;23.296;2023-09-30T08:05:42;15.68;;;6.00;;
21868;SDS011;11099;41.564;23.296;2023-09-30T08:08:11;14.27;;;5.82;;
21868;SDS011;11099;41.564;23.296;2023-09-30T08:13:02;15.27;;;6.45;;
21868;SDS011;11099;41.564;23.296;2023-09-30T08:15:28;10.90;;;6.07;;
21868;SDS011;11099;41.564;23.296;2023-09-30T08:17:57;7.00;;;4.93;;
21868;SDS011;11099;41.564;23.296;2023-09-30T08:20:31;12.23;;;5.47;;
21868;SDS011;11099;41.564;23.296;2023-09-30T08:22:57;8.50;;;5.30;;
21868;SDS011;11099;41.564;23.296;2023-09-30T08:25:23;10.82;;;5.75;;
21868;SDS011;11099;41.564;23.296;2023-09-30T08:27:49;7.75;;;5.40;;
21868;SDS011;11099;41.564;23.296;2023-09-30T08:30:15;12.23;;;5.30;;
21868;SDS011;11099;41.564;23.296;2023-09-30T08:32:41;11.18;;;5.47;;
21868;SDS011;11099;41.564;23.296;2023-09-30T08:35:06;13.50;;;5.57;;
21868;SDS011;11099;41.564;23.296;2023-09-30T08:37:33;13.00;;;5.88;;
21868;SDS011;11099;41.564;23.296;2023-09-30T08:39:58;8.70;;;5.75;;
21868;SDS011;11099;41.564;23.296;2023-09-30T08:42:24;15.25;;;5.43;;
21868;SDS011;11099;41.564;23.296;2023-09-30T08:44:57;11.75;;;5.32;;
21868;SDS011;11099;41.564;23.296;2023-09-30T08:47:25;12.00;;;5.30;;
21868;SDS011;11099;41.564;23.296;2023-09-30T08:49:53;10.20;;;4.95;;
21868;SDS011;11099;41.564;23.296;2023-09-30T08:52:22;15.32;;;5.50;;
21868;SDS011;11099;41.564;23.296;2023-09-30T08:54:49;13.00;;;5.28;;
21868;SDS011;11099;41.564;23.296;2023-09-30T08:57:23;11.52;;;5.07;;
21868;SDS011;11099;41.564;23.296;2023-09-30T08:59:50;9.68;;;5.00;;
21868;SDS011;11099;41.564;23.296;2023-09-30T09:02:17;9.40;;;4.97;;
21868;SDS011;11099;41.564;23.296;2023-09-30T09:04:44;11.65;;;5.30;;
21868;SDS011;11099;41.564;23.296;2023-09-30T09:07:10;14.52;;;5.60;;
21868;SDS011;11099;41.564;23.296;2023-09-30T09:09:36;7.00;;;4.80;;
21868;SDS011;11099;41.564;23.296;2023-09-30T09:12:02;10.82;;;5.18;;
21868;SDS011;11099;41.564;23.296;2023-09-30T09:14:41;11.65;;;5.05;;
21868;SDS011;11099;41.564;23.296;2023-09-30T09:17:11;7.70;;;4.80;;
21868;SDS011;11099;41.564;23.296;2023-09-30T09:19:37;9.52;;;5.03;;
21868;SDS011;11099;41.564;23.296;2023-09-30T09:22:03;9.52;;;4.97;;
21868;SDS011;11099;41.564;23.296;2023-09-30T09:24:33;13.25;;;4.30;;
21868;SDS011;11099;41.564;23.296;2023-09-30T09:27:04;11.48;;;5.03;;
21868;SDS011;11099;41.564;23.296;2023-09-30T09:29:31;14.88;;;5.32;;
21868;SDS011;11099;41.564;23.296;2023-09-30T09:32:10;9.55;;;4.80;;
21868;SDS011;11099;41.564;23.296;2023-09-30T09:34:44;10.70;;;4.78;;
21868;SDS011;11099;41.564;23.296;2023-09-30T09:37:24;12.43;;;4.90;;
21868;SDS011;11099;41.564;23.296;2023-09-30T09:39:50;9.68;;;4.13;;
21868;SDS011;11099;41.564;23.296;2023-09-30T09:42:51;7.53;;;4.38;;
21868;SDS011;11099;41.564;23.296;2023-09-30T09:45:09;7.95;;;5.30;;
21868;SDS011;11099;41.564;23.296;2023-09-30T09:47:35;8.98;;;4.40;;
21868;SDS011;11099;41.564;23.296;2023-09-30T09:50:03;10.38;;;4.47;;
21868;SDS011;11099;41.564;23.296;2023-09-30T09:52:30;8.95;;;5.07;;
21868;SDS011;11099;41.564;23.296;2023-09-30T09:54:59;9.90;;;4.80;;
21868;SDS011;11099;41.564;23.296;2023-09-30T09:57:26;8.50;;;4.70;;
21868;SDS011;11099;41.564;23.296;2023-09-30T09:59:55;15.35;;;4.85;;
21868;SDS011;11099;41.564;23.296;2023-09-30T10:02:21;8.15;;;4.28;;
21868;SDS011;11099;41.564;23.296;2023-09-30T10:04:47;7.75;;;4.43;;
21868;SDS011;11099;41.564;23.296;2023-09-30T10:07:19;13.25;;;4.50;;
21868;SDS011;11099;41.564;23.296;2023-09-30T10:09:47;7.85;;;4.93;;
21868;SDS011;11099;41.564;23.296;2023-09-30T10:12:16;12.68;;;5.03;;
21868;SDS011;11099;41.564;23.296;2023-09-30T10:14:43;13.10;;;5.10;;
21868;SDS011;11099;41.564;23.296;2023-09-30T10:17:09;10.50;;;5.45;;
21868;SDS011;11099;41.564;23.296;2023-09-30T10:19:35;8.35;;;4.10;;
21868;SDS011;11099;41.564;23.296;2023-09-30T10:24:42;13.95;;;5.10;;
21868;SDS011;11099;41.564;23.296;2023-09-30T10:37:53;9.48;;;4.25;;
21868;SDS011;11099;41.564;23.296;2023-09-30T10:40:47;13.73;;;4.68;;
21868;SDS011;11099;41.564;23.296;2023-09-30T10:48:52;9.23;;;4.40;;
21868;SDS011;11099;41.564;23.296;2023-09-30T10:51:18;14.57;;;4.43;;
21868;SDS011;11099;41.564;23.296;2023-09-30T10:53:48;9.82;;;4.47;;
21868;SDS011;11099;41.564;23.296;2023-09-30T10:56:18;10.32;;;4.80;;
21868;SDS011;11099;41.564;23.296;2023-09-30T10:58:46;10.20;;;4.25;;
21868;SDS011;11099;41.564;23.296;2023-09-30T11:01:17;9.90;;;4.22;;
21868;SDS011;11099;41.564;23.296;2023-09-30T11:03:44;12.75;;;4.40;;
21868;SDS011;11099;41.564;23.296;2023-09-30T11:06:11;7.75;;;5.25;;
21868;SDS011;11099;41.564;23.296;2023-09-30T11:08:53;15.32;;;4.82;;
21868;SDS011;11099;41.564;23.296;2023-09-30T11:11:33;10.73;;;5.55;;
21868;SDS011;11099;41.564;23.296;2023-09-30T11:14:29;13.13;;;4.82;;
21868;SDS011;11099;41.564;23.296;2023-09-30T11:16:56;13.45;;;4.32;;
21868;SDS011;11099;41.564;23.296;2023-09-30T11:19:24;11.75;;;4.85;;
21868;SDS011;11099;41.564;23.296;2023-09-30T11:21:52;8.93;;;4.32;;
21868;SDS011;11099;41.564;23.296;2023-09-30T11:24:20;12.20;;;4.07;;
21868;SDS011;11099;41.564;23.296;2023-09-30T11:26:46;6.40;;;4.05;;
21868;SDS011;11099;41.564;23.296;2023-09-30T11:29:13;7.10;;;4.68;;
21868;SDS011;11099;41.564;23.296;2023-09-30T11:31:43;9.57;;;4.57;;
21868;SDS011;11099;41.564;23.296;2023-09-30T11:34:11;6.60;;;4.10;;
21868;SDS011;11099;41.564;23.296;2023-09-30T11:36:38;10.40;;;4.38;;
21868;SDS011;11099;41.564;23.296;2023-09-30T11:39:08;9.93;;;4.20;;
21868;SDS011;11099;41.564;23.296;2023-09-30T11:41:38;7.95;;;4.57;;
21868;SDS011;11099;41.564;23.296;2023-09-30T11:44:10;10.23;;;4.72;;
21868;SDS011;11099;41.564;23.296;2023-09-30T11:46:47;6.60;;;4.43;;
21868;SDS011;11099;41.564;23.296;2023-09-30T11:52:00;6.22;;;3.47;;
21868;SDS011;11099;41.564;23.296;2023-09-30T11:56:55;5.80;;;3.30;;
21868;SDS011;11099;41.564;23.296;2023-09-30T11:59:21;9.63;;;3.95;;
21868;SDS011;11099;41.564;23.296;2023-09-30T12:01:47;11.98;;;3.80;;
21868;SDS011;11099;41.564;23.296;2023-09-30T12:04:16;7.30;;;4.43;;
21868;SDS011;11099;41.564;23.296;2023-09-30T12:06:44;10.68;;;3.83;;
21868;SDS011;11099;41.564;23.296;2023-09-30T12:09:13;6.25;;;3.90;;
21868;SDS011;11099;41.564;23.296;2023-09-30T12:11:47;4.82;;;3.83;;
21868;SDS011;11099;41.564;23.296;2023-09-30T12:14:13;3.92;;;3.22;;
21868;SDS011;11099;41.564;23.296;2023-09-30T12:16:39;11.95;;;3.90;;
21868;SDS011;11099;41.564;23.296;2023-09-30T12:19:04;7.78;;;4.45;;
21868;SDS011;11099;41.564;23.296;2023-09-30T12:21:31;13.18;;;4.13;;
21868;SDS011;11099;41.564;23.296;2023-09-30T12:23:57;8.63;;;4.32;;
21868;SDS011;11099;41.564;23.296;2023-09-30T12:26:23;7.38;;;3.63;;
21868;SDS011;11099;41.564;23.296;2023-09-30T12:28:49;4.35;;;3.65;;
21868;SDS011;11099;41.564;23.296;2023-09-30T12:31:15;5.63;;;3.40;;
21868;SDS011;11099;41.564;23.296;2023-09-30T12:33:41;4.35;;;3.60;;
21868;SDS011;11099;41.564;23.296;2023-09-30T12:36:07;11.15;;;3.90;;
21868;SDS011;11099;41.564;23.296;2023-09-30T12:38:38;10.82;;;4.00;;
21868;SDS011;11099;41.564;23.296;2023-09-30T12:41:03;6.05;;;3.45;;
21868;SDS011;11099;41.564;23.296;2023-09-30T12:43:29;19.38;;;3.90;;
21868;SDS011;11099;41.564;23.296;2023-09-30T12:45:54;13.35;;;3.70;;
21868;SDS011;11099;41.564;23.296;2023-09-30T12:48:20;9.38;;;4.00;;
21868;SDS011;11099;41.564;23.296;2023-09-30T12:50:46;10.60;;;5.57;;
21868;SDS011;11099;41.564;23.296;2023-09-30T12:53:13;9.20;;;5.07;;
21868;SDS011;11099;41.564;23.296;2023-09-30T12:55:39;8.13;;;4.43;;
21868;SDS011;11099;41.564;23.296;2023-09-30T12:58:04;9.73;;;3.97;;
21868;SDS011;11099;41.564;23.296;2023-09-30T13:00:30;9.48;;;5.18;;
21868;SDS011;11099;41.564;23.296;2023-09-30T13:02:58;6.80;;;3.60;;
21868;SDS011;11099;41.564;23.296;2023-09-30T13:05:25;6.95;;;3.20;;
21868;SDS011;11099;41.564;23.296;2023-09-30T13:07:50;8.15;;;3.30;;
21868;SDS011;11099;41.564;23.296;2023-09-30T13:10:18;5.45;;;3.33;;
21868;SDS011;11099;41.564;23.296;2023-09-30T13:12:44;6.55;;;3.22;;
21868;SDS011;11099;41.564;23.296;2023-09-30T13:15:10;5.90;;;3.00;;
21868;SDS011;11099;41.564;23.296;2023-09-30T13:17:35;6.38;;;3.63;;
21868;SDS011;11099;41.564;23.296;2023-09-30T13:20:01;10.50;;;3.25;;
21868;SDS011;11099;41.564;23.296;2023-09-30T13:22:30;10.55;;;3.65;;
21868;SDS011;11099;41.564;23.296;2023-09-30T13:24:56;7.38;;;3.15;;
21868;SDS011;11099;41.564;23.296;2023-09-30T13:27:22;7.30;;;3.38;;
21868;SDS011;11099;41.564;23.296;2023-09-30T13:29:48;8.65;;;3.42;;
21868;SDS011;11099;41.564;23.296;2023-09-30T13:32:13;7.78;;;3.25;;
21868;SDS011;11099;41.564;23.296;2023-09-30T13:34:39;6.30;;;3.58;;
21868;SDS011;11099;41.564;23.296;2023-09-30T13:37:05;7.20;;;3.25;;
21868;SDS011;11099;41.564;23.296;2023-09-30T13:39:30;5.00;;;3.45;;
21868;SDS011;11099;41.564;23.296;2023-09-30T13:41:56;10.30;;;3.30;;
21868;SDS011;11099;41.564;23.296;2023-09-30T13:44:21;6.47;;;3.33;;
21868;SDS011;11099;41.564;23.296;2023-09-30T13:46:48;6.40;;;3.47;;
21868;SDS011;11099;41.564;23.296;2023-09-30T13:49:14;13.18;;;3.67;;
21868;SDS011;11099;41.564;23.296;2023-09-30T13:51:39;8.60;;;3.50;;
21868;SDS011;11099;41.564;23.296;2023-09-30T13:54:05;3.80;;;3.42;;
21868;SDS011;11099;41.564;23.296;2023-09-30T13:56:34;8.32;;;3.70;;
21868;SDS011;11099;41.564;23.296;2023-09-30T13:58:59;12.18;;;4.00;;
21868;SDS011;11099;41.564;23.296;2023-09-30T14:01:25;9.32;;;3.75;;
21868;SDS011;11099;41.564;23.296;2023-09-30T14:03:52;11.77;;;3.85;;
21868;SDS011;11099;41.564;23.296;2023-09-30T14:06:21;7.25;;;3.58;;
21868;SDS011;11099;41.564;23.296;2023-09-30T14:08:47;8.38;;;3.97;;
21868;SDS011;11099;41.564;23.296;2023-09-30T14:11:12;9.15;;;3.70;;
21868;SDS011;11099;41.564;23.296;2023-09-30T14:13:38;4.82;;;3.90;;
21868;SDS011;11099;41.564;23.296;2023-09-30T14:16:07;10.02;;;3.63;;
21868;SDS011;11099;41.564;23.296;2023-09-30T14:18:33;5.25;;;3.70;;
21868;SDS011;11099;41.564;23.296;2023-09-30T14:20:59;6.72;;;3.58;;
21868;SDS011;11099;41.564;23.296;2023-09-30T14:23:26;8.63;;;3.47;;
21868;SDS011;11099;41.564;23.296;2023-09-30T14:25:54;5.97;;;2.95;;
21868;SDS011;11099;41.564;23.296;2023-09-30T14:28:24;6.20;;;3.30;;
21868;SDS011;11099;41.564;23.296;2023-09-30T14:30:50;8.55;;;3.83;;
21868;SDS011;11099;41.564;23.296;2023-09-30T14:33:16;6.03;;;3.53;;
21868;SDS011;11099;41.564;23.296;2023-09-30T14:35:44;5.38;;;3.38;;
21868;SDS011;11099;41.564;23.296;2023-09-30T14:38:10;10.48;;;3.25;;
21868;SDS011;11099;41.564;23.296;2023-09-30T14:40:40;10.15;;;3.78;;
21868;SDS011;11099;41.564;23.296;2023-09-30T14:43:08;8.85;;;3.45;;
21868;SDS011;11099;41.564;23.296;2023-09-30T14:45:38;6.95;;;3.70;;
21868;SDS011;11099;41.564;23.296;2023-09-30T14:48:08;7.97;;;3.25;;
21868;SDS011;11099;41.564;23.296;2023-09-30T14:50:36;8.73;;;3.35;;
21868;SDS011;11099;41.564;23.296;2023-09-30T14:53:02;6.78;;;3.95;;
21868;SDS011;11099;41.564;23.296;2023-09-30T14:55:30;6.72;;;3.60;;
21868;SDS011;11099;41.564;23.296;2023-09-30T14:57:56;10.82;;;3.90;;
21868;SDS011;11099;41.564;23.296;2023-09-30T15:00:22;8.88;;;4.43;;